Time;durP1;ratioP1;P1;durP2;ratioP2;P2;SDS_P1;SDS_P2;PMS_P1;PMS_P2;Temp;Humidity;BMP_temperature;BMP_pressure;BME280_temperature;BME280_humidity;BME280_pressure;Samples;Min_cycle;Max_cycle;Signal;HPM_P1;HPM_P2
2023/05/30 00:01:43;;;;;;;13.20;4.63;;;12.60;30.90;;;;;;5029351;28;46950;-81
2023/05/30 00:04:09;;;;;;;9.50;4.33;;;12.70;30.60;;;;;;5022752;28;46366;-80
2023/05/30 00:06:34;;;;;;;6.37;3.87;;;12.70;30.40;;;;;;5031594;28;46408;-80
2023/05/30 00:09:01;;;;;;;8.60;3.80;;;12.80;30.00;;;;;;5031137;28;46365;-80
2023/05/30 00:11:28;;;;;;;10.90;3.83;;;12.90;30.00;;;;;;5031956;28;46892;-81
2023/05/30 00:13:54;;;;;;;8.70;3.93;;;12.90;29.50;;;;;;5031528;28;46318;-80
2023/05/30 00:16:20;;;;;;;8.87;4.67;;;12.90;29.30;;;;;;5030834;28;46634;-80
2023/05/30 00:18:46;;;;;;;9.13;4.47;;;13.00;29.20;;;;;;5030707;28;46955;-80
2023/05/30 00:21:12;;;;;;;10.43;4.30;;;13.00;29.00;;;;;;5011206;28;46704;-81
2023/05/30 00:23:39;;;;;;;8.33;4.30;;;13.00;28.80;;;;;;5022493;28;46533;-80
2023/05/30 00:26:08;;;;;;;10.43;4.77;;;13.00;28.30;;;;;;5014262;28;45915;-80
2023/05/30 00:28:34;;;;;;;11.00;4.50;;;13.10;28.30;;;;;;5026969;28;46998;-79
2023/05/30 00:31:00;;;;;;;6.90;3.97;;;13.10;28.30;;;;;;5031387;28;46388;-80
2023/05/30 00:33:26;;;;;;;10.87;4.53;;;13.10;28.30;;;;;;5033675;28;46336;-81
2023/05/30 00:35:51;;;;;;;8.80;4.07;;;13.10;28.30;;;;;;5030565;28;46880;-81
2023/05/30 00:38:17;;;;;;;10.43;3.50;;;13.10;28.30;;;;;;5010284;28;49467;-80
2023/05/30 00:40:43;;;;;;;7.10;3.77;;;13.10;27.80;;;;;;5029929;28;45828;-81
2023/05/30 00:43:08;;;;;;;6.40;3.83;;;13.10;27.30;;;;;;5030114;28;45806;-81
2023/05/30 00:45:35;;;;;;;6.77;3.70;;;13.10;26.90;;;;;;5031186;28;46553;-80
2023/05/30 00:48:01;;;;;;;10.63;3.80;;;13.20;26.80;;;;;;5029727;28;47245;-82
2023/05/30 00:50:28;;;;;;;8.67;3.93;;;13.20;26.50;;;;;;5028488;28;46404;-81
2023/05/30 00:52:54;;;;;;;5.50;3.30;;;13.20;27.20;;;;;;5011541;28;46385;-82
2023/05/30 00:55:20;;;;;;;8.43;4.10;;;13.20;26.10;;;;;;5030720;28;46357;-81
2023/05/30 00:57:46;;;;;;;7.97;4.40;;;13.20;26.00;;;;;;5027138;28;46779;-81
2023/05/30 01:00:14;;;;;;;8.00;4.07;;;13.20;25.80;;;;;;5031450;28;46447;-81
2023/05/30 01:02:44;;;;;;;9.50;4.90;;;13.20;25.70;;;;;;5019838;28;46359;-80
2023/05/30 01:05:14;;;;;;;6.13;3.60;;;13.20;25.60;;;;;;5030155;28;46372;-79
2023/05/30 01:07:44;;;;;;;8.20;3.33;;;13.10;26.50;;;;;;5030052;28;47440;-79
2023/05/30 01:10:13;;;;;;;7.10;4.10;;;13.10;25.50;;;;;;5029048;28;46215;-81
2023/05/30 01:13:03;;;;;;;11.70;4.07;;;13.10;25.40;;;;;;5028283;28;46548;-81
2023/05/30 01:15:32;;;;;;;8.60;4.20;;;13.10;25.20;;;;;;5029381;28;46384;-80
2023/05/30 01:18:08;;;;;;;6.53;3.77;;;13.10;25.20;;;;;;5027517;28;46394;-81
2023/05/30 01:20:44;;;;;;;9.83;4.40;;;13.10;25.10;;;;;;5028474;28;46836;-80
2023/05/30 01:23:45;;;;;;;9.00;3.80;;;13.10;25.00;;;;;;5010357;28;46417;-80
2023/05/30 01:26:33;;;;;;;14.90;4.20;;;13.10;25.00;;;;;;5021414;28;46645;-80
2023/05/30 01:29:02;;;;;;;9.50;3.67;;;13.10;25.00;;;;;;5029441;28;46411;-77
2023/05/30 01:31:29;;;;;;;12.47;4.40;;;13.10;24.80;;;;;;5027813;28;46806;-80
2023/05/30 01:33:55;;;;;;;9.00;3.63;;;13.10;24.80;;;;;;5028815;28;46380;-80
2023/05/30 01:36:21;;;;;;;9.30;4.00;;;13.00;24.80;;;;;;5019165;28;46701;-80
2023/05/30 01:38:47;;;;;;;7.40;4.10;;;13.00;24.80;;;;;;5027496;28;46600;-80
2023/05/30 01:41:27;;;;;;;7.37;3.33;;;13.00;24.80;;;;;;5030918;28;46780;-80
2023/05/30 01:43:59;;;;;;;10.33;4.77;;;13.00;25.00;;;;;;5010670;28;46398;-80
2023/05/30 01:46:32;;;;;;;6.27;3.70;;;12.90;25.00;;;;;;5030210;28;46402;-81
2023/05/30 01:49:06;;;;;;;7.97;4.67;;;12.90;25.00;;;;;;5026025;28;46959;-79
2023/05/30 01:51:52;;;;;;;6.00;3.50;;;12.90;25.00;;;;;;5011065;28;46548;-78
2023/05/30 01:54:20;;;;;;;10.37;4.10;;;12.90;25.20;;;;;;5013333;28;46420;-81
2023/05/30 01:56:50;;;;;;;7.67;3.80;;;12.80;25.00;;;;;;5019516;28;46555;-80
2023/05/30 01:59:18;;;;;;;11.30;4.20;;;12.80;25.10;;;;;;5028970;28;46510;-81
2023/05/30 02:01:44;;;;;;;6.87;4.20;;;12.80;25.10;;;;;;5028197;28;46432;-81
2023/05/30 02:04:10;;;;;;;7.57;3.90;;;12.80;25.00;;;;;;5027046;28;46687;-85
2023/05/30 02:06:37;;;;;;;9.17;3.77;;;12.80;24.90;;;;;;5012287;28;46263;-79
2023/05/30 02:09:03;;;;;;;9.13;4.10;;;12.80;25.00;;;;;;5033059;28;47622;-78
2023/05/30 02:11:29;;;;;;;9.33;4.50;;;12.70;25.00;;;;;;5029470;28;46365;-79
2023/05/30 02:13:57;;;;;;;9.43;4.40;;;12.70;25.00;;;;;;5031716;28;46315;-80
2023/05/30 02:16:24;;;;;;;8.87;3.63;;;12.70;25.10;;;;;;5034222;28;45867;-79
2023/05/30 02:18:49;;;;;;;6.53;3.37;;;12.70;25.20;;;;;;5030033;28;47107;-79
2023/05/30 02:21:15;;;;;;;6.70;3.90;;;12.70;25.20;;;;;;5022648;28;46349;-78
2023/05/30 02:23:41;;;;;;;7.50;3.70;;;12.70;25.10;;;;;;5032860;28;46402;-78
2023/05/30 02:26:06;;;;;;;7.87;3.40;;;12.60;25.10;;;;;;5026137;28;46385;-79
2023/05/30 02:28:32;;;;;;;6.23;3.70;;;12.50;25.30;;;;;;5033041;28;46654;-81
2023/05/30 02:30:58;;;;;;;8.60;3.50;;;12.50;25.30;;;;;;5028499;28;46329;-79
2023/05/30 02:33:24;;;;;;;7.33;3.90;;;12.50;25.40;;;;;;5033246;28;46404;-79
2023/05/30 02:35:50;;;;;;;6.83;3.50;;;12.50;25.50;;;;;;5013386;28;46915;-79
2023/05/30 02:38:15;;;;;;;8.10;4.50;;;12.50;25.40;;;;;;5014134;28;49262;-79
2023/05/30 02:40:41;;;;;;;7.90;4.13;;;12.50;25.30;;;;;;5032096;28;46732;-79
2023/05/30 02:43:07;;;;;;;7.13;3.60;;;12.50;25.30;;;;;;5036010;28;46467;-79
2023/05/30 02:45:32;;;;;;;7.30;4.10;;;12.50;25.20;;;;;;5022001;28;46469;-79
2023/05/30 02:47:58;;;;;;;8.77;3.70;;;12.40;25.10;;;;;;5033381;28;46393;-80
2023/05/30 02:50:23;;;;;;;8.27;3.90;;;12.40;25.20;;;;;;5033325;28;46683;-79
2023/05/30 02:52:49;;;;;;;6.57;3.40;;;12.40;25.10;;;;;;5013022;28;46537;-80
2023/05/30 02:55:15;;;;;;;6.40;3.43;;;12.40;25.20;;;;;;5034590;28;46392;-79
2023/05/30 02:57:41;;;;;;;8.20;4.00;;;12.40;25.20;;;;;;5027516;28;48109;-80
2023/05/30 03:00:09;;;;;;;6.90;4.00;;;12.30;25.20;;;;;;5030244;28;46326;-80
2023/05/30 03:02:35;;;;;;;9.00;4.40;;;12.30;25.30;;;;;;5029784;28;46310;-81
2023/05/30 03:05:01;;;;;;;7.60;3.57;;;12.30;25.50;;;;;;5028438;28;46393;-82
2023/05/30 03:07:28;;;;;;;7.67;3.90;;;12.30;25.70;;;;;;5030286;28;46281;-81
2023/05/30 03:09:54;;;;;;;12.23;4.60;;;12.30;25.70;;;;;;5029510;28;46966;-80
2023/05/30 03:12:22;;;;;;;9.20;3.60;;;12.30;25.70;;;;;;5033227;28;45841;-81
2023/05/30 03:14:48;;;;;;;8.00;3.80;;;12.30;25.80;;;;;;5030471;28;45975;-80
2023/05/30 03:17:15;;;;;;;11.27;3.70;;;12.30;26.80;;;;;;5033504;28;46518;-81
2023/05/30 03:19:41;;;;;;;7.23;4.57;;;12.30;25.90;;;;;;5031516;28;46431;-80
2023/05/30 03:22:07;;;;;;;10.63;4.40;;;12.30;26.00;;;;;;5030553;28;46663;-81
2023/05/30 03:24:33;;;;;;;7.60;4.07;;;12.20;26.00;;;;;;5028049;28;46373;-79
2023/05/30 03:26:59;;;;;;;16.23;4.17;;;12.20;26.30;;;;;;5013680;28;48253;-79
2023/05/30 03:29:25;;;;;;;7.77;3.90;;;12.20;26.50;;;;;;5029235;28;45850;-81
2023/05/30 03:31:51;;;;;;;6.80;3.90;;;12.20;26.50;;;;;;5021181;28;46601;-80
2023/05/30 03:34:18;;;;;;;7.00;3.70;;;12.20;26.60;;;;;;5019193;28;46574;-80
2023/05/30 03:36:44;;;;;;;15.63;4.50;;;12.20;26.60;;;;;;5014903;28;49179;-80
2023/05/30 03:39:09;;;;;;;9.67;4.60;;;12.30;26.70;;;;;;5031508;28;46768;-79
2023/05/30 03:41:35;;;;;;;9.50;4.40;;;12.30;26.70;;;;;;5030221;28;46265;-80
2023/05/30 03:44:01;;;;;;;9.83;4.07;;;12.40;26.60;;;;;;5020386;28;46359;-81
2023/05/30 03:46:26;;;;;;;8.07;3.60;;;12.40;26.70;;;;;;5034458;28;46502;-80
2023/05/30 03:48:52;;;;;;;7.40;4.20;;;12.40;26.80;;;;;;5021309;28;46887;-82
2023/05/30 03:51:18;;;;;;;8.67;4.00;;;12.40;27.00;;;;;;5035554;28;46446;-80
2023/05/30 03:53:43;;;;;;;7.27;4.03;;;12.40;27.30;;;;;;5029778;28;45903;-81
2023/05/30 03:56:09;;;;;;;12.70;3.70;;;12.40;27.60;;;;;;5032052;28;46361;-80
2023/05/30 03:58:35;;;;;;;7.70;4.00;;;12.40;27.80;;;;;;5030959;28;46463;-79
2023/05/30 04:01:00;;;;;;;8.17;3.43;;;12.40;27.80;;;;;;5034808;28;46201;-81
2023/05/30 04:03:28;;;;;;;7.53;4.13;;;12.40;27.80;;;;;;5027557;28;46357;-81
2023/05/30 04:05:55;;;;;;;7.83;4.17;;;12.50;27.90;;;;;;5031634;28;47693;-81
2023/05/30 04:08:22;;;;;;;8.67;3.60;;;12.50;27.90;;;;;;5032430;28;46211;-82
2023/05/30 04:10:48;;;;;;;9.73;3.87;;;12.60;27.90;;;;;;5028102;28;46136;-81
2023/05/30 04:13:13;;;;;;;10.90;3.50;;;12.70;28.00;;;;;;5029096;28;46560;-80
2023/05/30 04:15:39;;;;;;;8.20;3.50;;;12.80;27.70;;;;;;5030927;28;47217;-82
2023/05/30 04:18:05;;;;;;;8.30;4.10;;;13.00;27.50;;;;;;5034204;28;46491;-80
2023/05/30 04:20:30;;;;;;;9.13;4.23;;;13.00;27.40;;;;;;5031773;28;46408;-78
2023/05/30 04:22:56;;;;;;;9.87;4.27;;;13.20;28.20;;;;;;5024020;28;46858;-81
2023/05/30 04:25:22;;;;;;;8.23;3.60;;;13.30;27.10;;;;;;5030854;28;46941;-81
2023/05/30 04:27:48;;;;;;;6.27;3.20;;;13.40;27.20;;;;;;5029761;28;46897;-81
2023/05/30 04:30:14;;;;;;;9.30;3.70;;;13.40;27.20;;;;;;5030730;28;46370;-82
2023/05/30 04:32:40;;;;;;;6.17;3.57;;;13.50;27.20;;;;;;5031662;28;46515;-79
2023/05/30 04:35:07;;;;;;;6.17;3.83;;;13.60;27.20;;;;;;5030848;28;46450;-79
2023/05/30 04:37:33;;;;;;;6.53;3.63;;;13.70;27.10;;;;;;5016275;28;46401;-80
2023/05/30 04:40:09;;;;;;;6.23;3.10;;;13.80;27.00;;;;;;5029092;28;46427;-81
2023/05/30 04:42:34;;;;;;;7.17;3.37;;;13.90;26.70;;;;;;5031218;28;46616;-82
2023/05/30 04:45:01;;;;;;;8.80;3.40;;;14.70;25.90;;;;;;5010916;28;47882;-78
2023/05/30 04:47:28;;;;;;;6.27;3.67;;;16.20;24.80;;;;;;5032286;28;46580;-81
2023/05/30 04:49:54;;;;;;;9.10;3.57;;;17.40;23.00;;;;;;5030387;28;46435;-80
2023/05/30 04:52:23;;;;;;;8.67;4.00;;;18.40;21.30;;;;;;5030908;28;46463;-81
2023/05/30 04:54:49;;;;;;;8.07;3.83;;;19.10;20.10;;;;;;5029497;28;46656;-78
2023/05/30 04:57:15;;;;;;;12.10;4.33;;;19.70;19.00;;;;;;5029727;28;46416;-81
2023/05/30 04:59:40;;;;;;;9.00;3.73;;;20.10;18.30;;;;;;5022905;28;46059;-80
2023/05/30 05:02:06;;;;;;;9.23;4.60;;;20.40;17.20;;;;;;5032507;28;46581;-81
2023/05/30 05:04:32;;;;;;;7.10;3.40;;;20.60;16.80;;;;;;5031221;28;46590;-81
2023/05/30 05:06:57;;;;;;;8.90;3.97;;;21.40;15.50;;;;;;5032444;28;45733;-81
2023/05/30 05:09:26;;;;;;;10.93;4.27;;;22.20;14.20;;;;;;5021217;28;46470;-81
2023/05/30 05:11:53;;;;;;;9.00;4.10;;;22.70;13.10;;;;;;5028227;28;46517;-81
2023/05/30 05:14:19;;;;;;;7.43;3.47;;;22.90;12.00;;;;;;5028665;28;47527;-82
2023/05/30 05:16:45;;;;;;;11.13;4.77;;;23.20;11.30;;;;;;5026812;28;46638;-81
2023/05/30 05:19:10;;;;;;;8.90;3.90;;;23.90;10.30;;;;;;5030812;28;45861;-81
2023/05/30 05:21:36;;;;;;;14.83;4.40;;;24.00;9.40;;;;;;5032473;28;46552;-81
2023/05/30 05:24:03;;;;;;;8.00;4.33;;;23.90;9.10;;;;;;5028949;28;46594;-80
2023/05/30 05:26:28;;;;;;;11.80;4.10;;;23.30;8.50;;;;;;5031041;28;45786;-81
2023/05/30 05:28:55;;;;;;;8.47;3.90;;;22.90;8.50;;;;;;5016126;28;46397;-80
2023/05/30 05:31:21;;;;;;;7.87;4.10;;;22.90;8.60;;;;;;5030794;28;46329;-81
2023/05/30 05:33:47;;;;;;;7.40;4.17;;;22.90;8.40;;;;;;5030877;28;46733;-81
2023/05/30 05:36:12;;;;;;;6.50;3.93;;;22.80;8.20;;;;;;5028328;28;46390;-80
2023/05/30 05:38:38;;;;;;;9.77;4.60;;;22.40;8.30;;;;;;5030043;28;46424;-81
2023/05/30 05:41:03;;;;;;;11.73;4.17;;;22.40;8.40;;;;;;5037376;28;46388;-81
2023/05/30 05:43:29;;;;;;;10.00;3.60;;;22.60;8.10;;;;;;5037401;28;46656;-82
2023/05/30 05:45:55;;;;;;;11.63;4.37;;;22.50;7.80;;;;;;5037324;28;46314;-81
2023/05/30 05:48:21;;;;;;;9.63;3.70;;;22.80;7.50;;;;;;5039177;28;46976;-82
2023/05/30 05:50:47;;;;;;;7.03;3.80;;;22.40;7.70;;;;;;5038126;28;46261;-82
2023/05/30 05:53:12;;;;;;;13.40;4.53;;;21.90;8.40;;;;;;5019836;28;46538;-83
2023/05/30 05:55:38;;;;;;;12.10;4.63;;;21.30;9.40;;;;;;5020034;28;46382;-81
2023/05/30 05:58:04;;;;;;;8.93;3.80;;;20.70;10.20;;;;;;5012220;28;46328;-80
2023/05/30 06:00:30;;;;;;;8.23;3.70;;;20.40;11.70;;;;;;5033225;28;46506;-80
2023/05/30 06:02:56;;;;;;;8.90;4.20;;;19.80;11.30;;;;;;5016945;28;48122;-80
2023/05/30 06:05:22;;;;;;;7.87;3.70;;;19.20;12.30;;;;;;5036097;28;46441;-81
2023/05/30 06:07:47;;;;;;;8.87;3.60;;;19.10;12.60;;;;;;5034371;28;46550;-79
2023/05/30 06:10:13;;;;;;;8.97;3.87;;;19.10;12.50;;;;;;5034950;28;46459;-80
2023/05/30 06:12:39;;;;;;;6.90;3.70;;;19.00;13.50;;;;;;5013637;28;49573;-80
2023/05/30 06:15:06;;;;;;;8.10;4.07;;;18.80;12.40;;;;;;5031951;28;46413;-79
2023/05/30 06:17:31;;;;;;;10.53;3.90;;;18.80;12.20;;;;;;5033294;28;46503;-80
2023/05/30 06:19:57;;;;;;;9.60;4.20;;;18.80;12.10;;;;;;5031578;28;46634;-78
2023/05/30 06:22:23;;;;;;;9.33;3.93;;;18.50;12.50;;;;;;5013614;28;48592;-82
2023/05/30 06:24:48;;;;;;;10.50;4.27;;;18.70;12.40;;;;;;5032995;28;46899;-83
2023/05/30 06:27:14;;;;;;;8.17;3.97;;;18.90;12.10;;;;;;5015178;28;46599;-82
2023/05/30 06:29:41;;;;;;;9.90;4.40;;;19.10;11.90;;;;;;5032188;28;46507;-82
2023/05/30 06:32:08;;;;;;;9.90;4.30;;;19.20;11.80;;;;;;5015262;28;48040;-81
2023/05/30 06:34:34;;;;;;;21.37;4.90;;;19.10;11.70;;;;;;5037006;28;46528;-81
2023/05/30 06:37:00;;;;;;;9.10;4.00;;;19.00;11.90;;;;;;5031874;28;46331;-81
2023/05/30 06:39:25;;;;;;;16.30;4.80;;;19.00;12.10;;;;;;5030795;28;46357;-83
2023/05/30 06:41:51;;;;;;;11.67;4.20;;;19.20;12.00;;;;;;5032680;28;46479;-81
2023/05/30 06:44:17;;;;;;;12.50;4.13;;;19.40;12.70;;;;;;5023274;28;46741;-81
2023/05/30 06:46:43;;;;;;;10.00;4.07;;;19.30;11.70;;;;;;5028438;28;46662;-82
2023/05/30 06:49:09;;;;;;;10.93;4.13;;;19.30;11.70;;;;;;5032726;28;46525;-84
2023/05/30 06:51:35;;;;;;;8.90;4.20;;;19.20;11.90;;;;;;5033936;28;46445;-83
2023/05/30 06:54:01;;;;;;;8.50;4.20;;;19.10;12.20;;;;;;5027710;28;46484;-83
2023/05/30 06:56:26;;;;;;;11.77;4.17;;;19.30;11.80;;;;;;5031560;28;46761;-82
2023/05/30 06:58:52;;;;;;;12.00;4.53;;;19.10;11.80;;;;;;5031067;28;46414;-82
2023/05/30 07:01:18;;;;;;;6.27;3.70;;;19.10;11.80;;;;;;5032788;28;46750;-81
2023/05/30 07:03:43;;;;;;;13.53;4.60;;;19.10;11.50;;;;;;5023661;28;46331;-81
2023/05/30 07:06:09;;;;;;;10.83;3.67;;;19.30;11.80;;;;;;5030088;28;45785;-81
2023/05/30 07:08:35;;;;;;;9.45;4.30;;;19.70;11.10;;;;;;5029125;28;46585;-81
2023/05/30 07:11:01;;;;;;;13.60;4.47;;;19.90;11.30;;;;;;5013108;28;49377;-83
2023/05/30 07:13:26;;;;;;;10.80;4.23;;;20.00;11.30;;;;;;5030868;28;46429;-78
2023/05/30 07:15:52;;;;;;;7.87;4.10;;;19.70;11.10;;;;;;5030252;28;46574;-80
2023/05/30 07:18:17;;;;;;;10.27;4.37;;;19.60;11.70;;;;;;5031690;28;46636;-80
2023/05/30 07:20:43;;;;;;;8.50;4.17;;;19.60;11.70;;;;;;5031390;28;46919;-80
2023/05/30 07:23:08;;;;;;;10.30;4.33;;;19.40;11.80;;;;;;5013883;28;46655;-79
2023/05/30 07:25:34;;;;;;;10.77;4.40;;;19.50;11.60;;;;;;5031787;28;46995;-78
2023/05/30 07:28:00;;;;;;;7.70;3.60;;;19.60;11.10;;;;;;5033172;28;46369;-83
2023/05/30 07:30:27;;;;;;;9.90;4.10;;;19.70;11.10;;;;;;5020058;28;48226;-79
2023/05/30 07:32:52;;;;;;;20.53;5.10;;;19.70;11.20;;;;;;5031989;28;46538;-80
2023/05/30 07:35:18;;;;;;;9.53;4.07;;;19.70;11.20;;;;;;5020455;28;45880;-80
2023/05/30 07:37:43;;;;;;;10.93;4.10;;;19.60;11.80;;;;;;5029958;28;45881;-80
2023/05/30 07:40:09;;;;;;;10.93;4.30;;;19.50;11.90;;;;;;5035967;28;46179;-77
2023/05/30 07:42:38;;;;;;;9.30;4.20;;;19.70;11.80;;;;;;5012902;28;46384;-81
2023/05/30 07:45:05;;;;;;;8.63;3.60;;;19.80;11.60;;;;;;5032917;28;46477;-80
2023/05/30 07:47:30;;;;;;;7.30;3.80;;;19.70;11.70;;;;;;5032906;28;46875;-79
2023/05/30 07:49:56;;;;;;;10.33;4.10;;;19.70;12.10;;;;;;5032395;28;46436;-80
2023/05/30 07:52:22;;;;;;;8.67;4.40;;;19.80;11.90;;;;;;5011791;28;46880;-79
2023/05/30 07:54:48;;;;;;;9.23;4.57;;;19.90;11.80;;;;;;5033045;28;46495;-79
2023/05/30 07:57:14;;;;;;;13.00;3.80;;;19.90;11.20;;;;;;5024269;28;46924;-80
2023/05/30 07:59:43;;;;;;;10.50;5.13;;;20.10;11.40;;;;;;5035389;28;46473;-81
2023/05/30 08:02:08;;;;;;;12.80;4.67;;;19.90;11.30;;;;;;5014065;28;47051;-83
2023/05/30 08:04:34;;;;;;;8.00;3.93;;;20.20;11.50;;;;;;5034179;28;46427;-81
2023/05/30 08:07:02;;;;;;;9.90;4.10;;;20.20;11.50;;;;;;5032692;28;46406;-80
2023/05/30 08:09:29;;;;;;;11.63;4.37;;;19.90;11.20;;;;;;5033036;28;47912;-78
2023/05/30 08:11:54;;;;;;;10.57;4.00;;;19.90;11.60;;;;;;5012654;28;46499;-79
2023/05/30 08:14:20;;;;;;;6.90;3.80;;;20.20;11.50;;;;;;5030179;28;46148;-81
2023/05/30 08:16:46;;;;;;;16.30;4.80;;;20.40;11.60;;;;;;5030782;28;46419;-80
2023/05/30 08:19:12;;;;;;;9.10;4.57;;;20.40;11.60;;;;;;5031362;28;46432;-81
2023/05/30 08:21:38;;;;;;;7.87;4.67;;;20.40;12.60;;;;;;5032977;28;46671;-80
2023/05/30 08:24:04;;;;;;;14.70;4.30;;;20.40;11.60;;;;;;5011974;28;46417;-79
2023/05/30 08:26:30;;;;;;;9.73;4.40;;;20.50;11.30;;;;;;5029054;28;47008;-80
2023/05/30 08:28:56;;;;;;;7.37;4.27;;;20.40;11.60;;;;;;5028661;28;47254;-80
2023/05/30 08:31:22;;;;;;;6.43;3.50;;;20.40;11.60;;;;;;5015650;28;46436;-82
2023/05/30 08:33:48;;;;;;;14.03;3.80;;;20.50;11.20;;;;;;5031142;28;46465;-79
2023/05/30 08:36:13;;;;;;;17.40;4.00;;;20.40;11.20;;;;;;5027704;28;46448;-78
2023/05/30 08:38:39;;;;;;;9.20;4.30;;;20.60;11.40;;;;;;4994345;28;47328;-78
2023/05/30 08:41:05;;;;;;;13.70;4.07;;;20.90;10.90;;;;;;5012623;28;46485;-78
2023/05/30 08:43:30;;;;;;;7.37;4.00;;;21.00;10.50;;;;;;5029769;28;46491;-79
2023/05/30 08:45:57;;;;;;;9.00;3.70;;;21.10;10.40;;;;;;5030595;28;46832;-79
2023/05/30 08:48:28;;;;;;;7.77;3.97;;;20.90;10.60;;;;;;5030034;28;46410;-79
2023/05/30 08:50:54;;;;;;;8.80;4.07;;;21.10;10.80;;;;;;5031293;28;46369;-78
2023/05/30 08:53:32;;;;;;;14.33;4.10;;;21.30;10.40;;;;;;5031285;28;45916;-80
2023/05/30 08:56:28;;;;;;;12.40;4.23;;;21.30;10.20;;;;;;5031871;28;46450;-81
2023/05/30 08:58:55;;;;;;;8.80;4.60;;;21.30;10.30;;;;;;5013141;28;49313;-79
2023/05/30 09:01:22;;;;;;;9.77;4.40;;;21.40;10.30;;;;;;5032711;28;46479;-78
2023/05/30 09:03:49;;;;;;;13.83;4.40;;;21.50;10.60;;;;;;5018328;28;46377;-81
2023/05/30 09:06:16;;;;;;;11.57;4.47;;;21.50;10.40;;;;;;5031176;28;45895;-81
2023/05/30 09:08:45;;;;;;;8.97;4.90;;;21.50;10.60;;;;;;5029601;28;46650;-80
2023/05/30 09:11:11;;;;;;;14.90;4.93;;;21.40;10.30;;;;;;5028123;28;46575;-78
2023/05/30 09:13:37;;;;;;;10.60;5.03;;;21.50;10.10;;;;;;5027591;28;46686;-80
2023/05/30 09:16:02;;;;;;;18.73;4.47;;;21.60;10.00;;;;;;5019625;28;46422;-81
2023/05/30 09:18:32;;;;;;;10.13;4.70;;;21.50;10.30;;;;;;5036893;28;46430;-79
2023/05/30 09:20:58;;;;;;;10.90;4.60;;;21.60;10.10;;;;;;5027660;28;46538;-80
2023/05/30 09:23:24;;;;;;;6.57;4.03;;;21.50;10.00;;;;;;5036792;28;46663;-77
2023/05/30 09:25:51;;;;;;;10.13;4.33;;;21.60;10.10;;;;;;5034944;28;46389;-79
2023/05/30 09:28:24;;;;;;;11.50;4.40;;;21.60;10.00;;;;;;5036242;28;47115;-77
2023/05/30 09:30:57;;;;;;;10.10;4.17;;;21.40;10.30;;;;;;5038292;28;46661;-83
2023/05/30 09:33:23;;;;;;;14.10;4.77;;;21.60;10.30;;;;;;5026089;28;46402;-81
2023/05/30 09:35:53;;;;;;;8.53;4.37;;;21.70;10.10;;;;;;5037732;28;46890;-83
2023/05/30 09:38:22;;;;;;;8.43;4.47;;;21.80;9.90;;;;;;5027090;28;48155;-82
2023/05/30 09:40:50;;;;;;;10.23;4.60;;;21.90;9.40;;;;;;5034043;28;46206;-81
2023/05/30 09:43:34;;;;;;;13.20;4.50;;;21.90;9.50;;;;;;5034055;28;46435;-83
2023/05/30 09:46:05;;;;;;;12.73;4.70;;;22.30;9.50;;;;;;5038650;28;45916;-81
2023/05/30 09:48:31;;;;;;;8.27;4.00;;;22.40;8.90;;;;;;5034159;28;46385;-79
2023/05/30 09:51:01;;;;;;;8.30;3.27;;;22.50;8.40;;;;;;5037882;28;46438;-80
2023/05/30 09:53:32;;;;;;;8.63;3.50;;;22.40;8.00;;;;;;5035948;28;46389;-82
2023/05/30 09:55:58;;;;;;;11.00;3.67;;;22.40;7.90;;;;;;5033432;28;46813;-81
2023/05/30 09:58:24;;;;;;;10.50;4.30;;;22.40;7.80;;;;;;5035112;28;47325;-83
2023/05/30 10:00:52;;;;;;;15.53;3.60;;;22.60;7.60;;;;;;5037739;28;45796;-81
2023/05/30 10:03:20;;;;;;;13.30;3.80;;;22.70;7.40;;;;;;5033840;28;46496;-82
2023/05/30 10:05:46;;;;;;;7.90;3.37;;;22.80;6.80;;;;;;5037077;28;46706;-82
2023/05/30 10:08:13;;;;;;;11.43;3.80;;;22.80;6.80;;;;;;5028248;28;48036;-80
2023/05/30 10:10:40;;;;;;;7.57;4.10;;;22.80;6.90;;;;;;5026321;28;46438;-81
2023/05/30 10:13:07;;;;;;;12.60;4.63;;;22.70;6.90;;;;;;5018121;28;46466;-80
2023/05/30 10:15:33;;;;;;;7.20;3.70;;;22.90;6.80;;;;;;5017362;28;47033;-82
2023/05/30 10:18:01;;;;;;;7.77;4.00;;;23.00;7.50;;;;;;5037817;28;46488;-84
2023/05/30 10:20:28;;;;;;;11.07;3.97;;;23.10;6.20;;;;;;5025225;28;46974;-82
2023/05/30 10:22:54;;;;;;;7.60;4.00;;;23.20;6.00;;;;;;5034458;28;46664;-83
2023/05/30 10:25:21;;;;;;;11.93;3.97;;;23.20;5.60;;;;;;5032488;28;46656;-81
2023/05/30 10:28:00;;;;;;;7.17;3.27;;;23.10;5.40;;;;;;5013178;28;48519;-81
2023/05/30 10:30:28;;;;;;;11.27;4.63;;;23.20;5.50;;;;;;5030156;28;46500;-79
2023/05/30 10:33:11;;;;;;;13.73;4.10;;;23.30;5.20;;;;;;5030781;28;46644;-81
2023/05/30 10:35:37;;;;;;;11.20;4.17;;;23.40;5.30;;;;;;5012100;28;45992;-81
2023/05/30 10:38:08;;;;;;;12.97;4.37;;;23.30;5.60;;;;;;5016580;28;48329;-81
2023/05/30 10:40:57;;;;;;;12.00;3.70;;;23.30;5.70;;;;;;5031193;28;46485;-80
2023/05/30 10:43:45;;;;;;;11.20;4.50;;;23.60;5.60;;;;;;5031872;28;46413;-81
2023/05/30 10:46:16;;;;;;;10.60;4.17;;;23.60;4.30;;;;;;5033683;28;46412;-79
2023/05/30 10:48:58;;;;;;;7.47;3.50;;;23.70;4.30;;;;;;5030949;28;47475;-81
2023/05/30 10:51:24;;;;;;;7.03;3.50;;;23.80;3.30;;;;;;5033495;28;46618;-82
2023/05/30 10:53:50;;;;;;;11.30;3.20;;;23.80;2.80;;;;;;5029399;28;46995;-80
2023/05/30 10:56:36;;;;;;;12.60;3.47;;;23.80;2.60;;;;;;5011252;28;46674;-78
2023/05/30 10:59:10;;;;;;;7.00;2.97;;;24.20;2.90;;;;;;5029788;28;46450;-80
2023/05/30 11:01:38;;;;;;;10.03;3.47;;;24.70;3.20;;;;;;5021593;28;46755;-81
2023/05/30 11:04:04;;;;;;;6.80;3.50;;;24.80;2.00;;;;;;5033181;28;46435;-81
2023/05/30 11:06:36;;;;;;;6.83;3.30;;;24.80;2.00;;;;;;5031471;28;46453;-80
2023/05/30 11:09:14;;;;;;;8.60;3.30;;;25.00;1.00;;;;;;5032691;28;47080;-83
2023/05/30 11:11:41;;;;;;;11.17;3.80;;;25.00;1.00;;;;;;5013984;28;48545;-80
2023/05/30 11:14:08;;;;;;;8.70;3.53;;;25.30;1.00;;;;;;5028355;28;46588;-80
2023/05/30 11:16:55;;;;;;;6.23;3.17;;;25.30;1.00;;;;;;5021212;28;46710;-82
2023/05/30 11:19:47;;;;;;;10.50;3.60;;;25.40;1.00;;;;;;5012060;28;48997;-82
2023/05/30 11:22:13;;;;;;;6.33;3.00;;;25.70;1.00;;;;;;5030259;28;46564;-82
2023/05/30 11:24:40;;;;;;;10.97;4.17;;;25.80;1.00;;;;;;5029648;28;46451;-82
2023/05/30 11:27:10;;;;;;;9.33;3.30;;;25.60;1.00;;;;;;5021414;28;46476;-81
2023/05/30 11:29:55;;;;;;;5.30;3.10;;;25.50;1.00;;;;;;5018564;28;48108;-81
2023/05/30 11:32:28;;;;;;;8.27;3.20;;;25.30;1.00;;;;;;5021289;28;46271;-81
2023/05/30 11:34:58;;;;;;;7.00;3.10;;;25.30;1.00;;;;;;5029925;28;46468;-79
2023/05/30 11:37:25;;;;;;;7.17;3.90;;;25.30;1.00;;;;;;5031907;28;46678;-81
2023/05/30 11:39:56;;;;;;;13.50;3.60;;;25.30;1.00;;;;;;5033928;28;47454;-80
2023/05/30 11:42:22;;;;;;;5.40;3.30;;;25.40;1.00;;;;;;5017021;28;46620;-84
2023/05/30 11:44:48;;;;;;;7.60;3.50;;;25.60;1.00;;;;;;5030315;28;46506;-82
2023/05/30 11:47:15;;;;;;;9.77;3.77;;;25.50;1.00;;;;;;5031088;28;46441;-83
2023/05/30 11:49:45;;;;;;;6.50;3.73;;;25.30;1.00;;;;;;5013162;28;48154;-81
2023/05/30 11:52:12;;;;;;;9.30;4.00;;;25.40;1.00;;;;;;5011873;28;47535;-82
2023/05/30 11:54:39;;;;;;;8.20;3.50;;;25.20;1.00;;;;;;5033340;28;46617;-80
2023/05/30 11:57:06;;;;;;;10.93;3.13;;;24.70;1.00;;;;;;5027982;28;46647;-81
2023/05/30 11:59:32;;;;;;;6.97;3.00;;;24.60;1.00;;;;;;5032736;28;47404;-80
2023/05/30 12:01:59;;;;;;;11.37;4.20;;;24.60;1.00;;;;;;5013196;28;46319;-80
2023/05/30 12:04:28;;;;;;;9.90;3.80;;;24.70;1.00;;;;;;5027850;28;46451;-80
2023/05/30 12:07:02;;;;;;;12.83;4.13;;;24.60;1.00;;;;;;5022896;28;46499;-80
2023/05/30 12:09:34;;;;;;;15.77;3.87;;;24.50;1.00;;;;;;5028932;28;47118;-81
2023/05/30 12:12:00;;;;;;;9.40;3.50;;;24.40;1.00;;;;;;5026092;28;46423;-78
2023/05/30 12:14:44;;;;;;;10.67;3.80;;;24.40;1.00;;;;;;5010460;28;46398;-82
2023/05/30 12:17:14;;;;;;;11.97;4.13;;;24.40;1.00;;;;;;5027944;28;45878;-81
2023/05/30 12:19:44;;;;;;;6.57;3.80;;;24.80;1.00;;;;;;5018818;28;47653;-80
2023/05/30 12:22:15;;;;;;;8.07;3.87;;;25.00;1.00;;;;;;5021415;28;47314;-82
2023/05/30 12:24:41;;;;;;;12.70;4.13;;;24.90;1.00;;;;;;5030561;28;46491;-79
2023/05/30 12:27:18;;;;;;;6.40;4.03;;;24.50;1.00;;;;;;5033596;28;45859;-81
2023/05/30 12:29:43;;;;;;;6.83;3.43;;;24.20;1.00;;;;;;5032573;28;46503;-81
2023/05/30 12:32:09;;;;;;;13.60;4.43;;;24.10;1.00;;;;;;5030633;28;46447;-81
2023/05/30 12:34:45;;;;;;;7.70;3.80;;;24.40;1.00;;;;;;5031219;28;46480;-80
2023/05/30 12:37:12;;;;;;;10.73;3.83;;;24.80;1.00;;;;;;5028665;28;46268;-80
2023/05/30 12:39:52;;;;;;;11.60;4.30;;;25.10;1.00;;;;;;5027744;28;46388;-80
2023/05/30 12:42:25;;;;;;;6.93;3.27;;;25.20;1.00;;;;;;5027123;28;46901;-80
2023/05/30 12:44:55;;;;;;;6.73;3.50;;;25.40;1.00;;;;;;5029729;28;46720;-80
2023/05/30 12:47:22;;;;;;;9.43;3.77;;;25.30;1.00;;;;;;5013163;28;46412;-80
2023/05/30 12:49:48;;;;;;;5.77;3.50;;;25.20;1.00;;;;;;5029426;28;46484;-80